Time;durP1;ratioP1;P1;durP2;ratioP2;P2;SDS_P1;SDS_P2;PMS_P1;PMS_P2;Temp;Humidity;BMP_temperature;BMP_pressure;BME280_temperature;BME280_humidity;BME280_pressure;Samples;Min_cycle;Max_cycle;Signal;HPM_P1;HPM_P2
2022/09/03 00:00:38;;;;;;;6.87;3.33;;;18.50;94.20;;;;;;5037998;28;20195;-75
2022/09/03 00:03:13;;;;;;;6.43;3.50;;;18.50;94.20;;;;;;5039874;28;20633;-74
2022/09/03 00:05:47;;;;;;;6.63;3.30;;;18.50;94.40;;;;;;5037905;28;20214;-75
2022/09/03 00:08:22;;;;;;;10.13;3.27;;;18.50;94.30;;;;;;5038730;28;20210;-75
2022/09/03 00:10:56;;;;;;;6.97;3.47;;;18.50;94.30;;;;;;5031651;28;20198;-76
2022/09/03 00:13:28;;;;;;;7.80;3.57;;;18.60;94.30;;;;;;5041585;28;20686;-75
2022/09/03 00:15:58;;;;;;;6.40;3.57;;;18.60;94.30;;;;;;5032795;28;20195;-75
2022/09/03 00:18:31;;;;;;;5.97;3.37;;;18.60;94.40;;;;;;5043716;28;20248;-74
2022/09/03 00:21:07;;;;;;;6.87;3.53;;;18.60;94.40;;;;;;5038980;28;20190;-74
2022/09/03 00:23:41;;;;;;;8.70;3.73;;;18.60;94.40;;;;;;5040009;28;20198;-76
2022/09/03 00:26:24;;;;;;;6.30;3.10;;;18.60;94.40;;;;;;5037227;28;20221;-74
2022/09/03 00:28:59;;;;;;;6.17;3.00;;;18.50;94.60;;;;;;5036725;28;20257;-75
2022/09/03 00:31:32;;;;;;;6.83;3.00;;;18.50;94.70;;;;;;5040567;28;20195;-76
2022/09/03 00:34:04;;;;;;;6.57;3.63;;;18.50;94.70;;;;;;5038496;28;20728;-75
2022/09/03 00:36:40;;;;;;;8.53;3.53;;;18.50;94.60;;;;;;5040578;28;20716;-75
2022/09/03 00:39:12;;;;;;;9.20;3.97;;;18.40;94.90;;;;;;5037965;28;20215;-74
2022/09/03 00:41:50;;;;;;;6.20;3.13;;;18.50;94.70;;;;;;5039315;28;20198;-75
2022/09/03 00:44:53;;;;;;;6.20;3.53;;;18.50;94.70;;;;;;5040425;28;20201;-75
2022/09/03 00:47:29;;;;;;;6.40;3.33;;;18.50;95.20;;;;;;5037889;28;20669;-75
2022/09/03 00:50:08;;;;;;;7.50;3.50;;;18.40;94.80;;;;;;5039800;28;20217;-75
2022/09/03 00:52:51;;;;;;;8.03;3.50;;;18.40;94.90;;;;;;5037270;28;20746;-76
2022/09/03 00:55:31;;;;;;;6.60;3.33;;;18.50;94.90;;;;;;5030190;28;20183;-76
2022/09/03 00:58:22;;;;;;;5.13;3.20;;;18.50;94.90;;;;;;5034369;28;20820;-76
2022/09/03 01:00:52;;;;;;;5.43;3.33;;;18.50;95.00;;;;;;5037971;28;20226;-75
2022/09/03 01:03:31;;;;;;;8.47;2.80;;;18.50;95.10;;;;;;5039029;28;20199;-75
2022/09/03 01:06:17;;;;;;;6.73;3.43;;;18.50;95.00;;;;;;5039566;28;20960;-76
2022/09/03 01:09:01;;;;;;;8.37;3.17;;;18.50;94.90;;;;;;5036057;28;20206;-75
2022/09/03 01:11:46;;;;;;;5.47;3.03;;;18.50;94.90;;;;;;5036863;28;20195;-75
2022/09/03 01:14:24;;;;;;;5.27;3.00;;;18.60;95.00;;;;;;5037295;28;20199;-76
2022/09/03 01:17:02;;;;;;;7.47;3.73;;;18.60;94.90;;;;;;5029804;28;20441;-76
2022/09/03 01:19:52;;;;;;;6.13;2.90;;;18.60;95.10;;;;;;5038995;28;20438;-76
2022/09/03 01:22:41;;;;;;;7.00;3.17;;;18.70;94.90;;;;;;5038318;28;20187;-76
2022/09/03 01:25:17;;;;;;;7.47;3.20;;;18.70;94.90;;;;;;4986661;28;20645;-74
2022/09/03 01:28:12;;;;;;;9.43;3.33;;;18.70;94.80;;;;;;5044828;28;20201;-75
2022/09/03 01:30:47;;;;;;;4.70;3.00;;;18.70;94.80;;;;;;5040208;28;20582;-74
2022/09/03 01:33:25;;;;;;;8.83;3.00;;;18.80;94.60;;;;;;5044762;28;20202;-75
2022/09/03 01:36:03;;;;;;;5.03;2.87;;;18.70;94.90;;;;;;5042884;28;20206;-75
2022/09/03 01:38:40;;;;;;;5.73;3.00;;;18.70;94.80;;;;;;5039721;28;20237;-75
2022/09/03 01:44:17;;;;;;;6.10;3.10;;;18.70;94.80;;;;;;5039099;28;20228;-75
2022/09/03 01:46:50;;;;;;;7.13;3.57;;;18.80;94.80;;;;;;5045869;28;20187;-75
2022/09/03 01:49:24;;;;;;;7.10;2.87;;;18.70;94.80;;;;;;5043927;28;20199;-75
2022/09/03 01:52:03;;;;;;;7.37;2.77;;;18.70;94.70;;;;;;5037552;28;20199;-76
2022/09/03 01:54:50;;;;;;;5.33;3.00;;;18.70;94.70;;;;;;5040080;28;20202;-75
2022/09/03 01:57:35;;;;;;;7.60;2.60;;;18.70;94.60;;;;;;5042194;28;20636;-74
2022/09/03 02:00:10;;;;;;;6.60;2.80;;;18.70;94.50;;;;;;5043004;28;20245;-75
2022/09/03 02:02:39;;;;;;;5.77;2.73;;;18.70;94.50;;;;;;5043847;28;20216;-73
2022/09/03 02:05:10;;;;;;;7.30;2.43;;;18.70;94.50;;;;;;5039388;28;20214;-74
2022/09/03 02:07:42;;;;;;;8.53;3.17;;;18.70;94.60;;;;;;5041915;28;20199;-74
2022/09/03 02:10:14;;;;;;;6.30;2.40;;;18.70;94.50;;;;;;5034500;28;20207;-75
2022/09/03 02:12:46;;;;;;;4.30;2.63;;;18.70;94.50;;;;;;5040812;28;20199;-75
2022/09/03 02:15:18;;;;;;;5.70;2.70;;;18.70;94.50;;;;;;5040374;28;20199;-74
2022/09/03 02:17:49;;;;;;;5.23;2.87;;;18.70;94.50;;;;;;5043192;28;20203;-74
2022/09/03 02:20:21;;;;;;;8.67;3.00;;;18.80;94.50;;;;;;5038708;28;20193;-75
2022/09/03 02:22:51;;;;;;;6.33;2.90;;;18.70;94.50;;;;;;5035818;28;20187;-74
2022/09/03 02:25:20;;;;;;;6.40;2.70;;;18.70;94.60;;;;;;5035238;28;20214;-73
2022/09/03 02:27:50;;;;;;;6.40;2.77;;;18.70;94.60;;;;;;5039268;28;20191;-76
2022/09/03 02:30:20;;;;;;;5.33;2.63;;;18.70;94.60;;;;;;5041858;28;20273;-74
2022/09/03 02:32:48;;;;;;;8.07;3.10;;;18.70;94.60;;;;;;5039976;28;20199;-74
2022/09/03 02:35:17;;;;;;;9.13;3.10;;;18.70;94.50;;;;;;5038938;28;20218;-73
2022/09/03 02:37:45;;;;;;;6.63;2.90;;;18.70;94.50;;;;;;5042880;28;20266;-74
2022/09/03 02:40:13;;;;;;;6.93;3.00;;;18.70;94.50;;;;;;5042594;28;20195;-74
2022/09/03 02:42:42;;;;;;;8.00;3.13;;;18.70;94.40;;;;;;5038787;28;20206;-73
2022/09/03 02:45:20;;;;;;;7.33;2.73;;;18.70;94.40;;;;;;5038186;28;20191;-73
2022/09/03 02:47:54;;;;;;;6.57;2.50;;;18.70;94.40;;;;;;5041284;28;20634;-74
2022/09/03 02:50:22;;;;;;;5.60;2.70;;;18.80;94.40;;;;;;5042304;28;20260;-73
2022/09/03 02:52:51;;;;;;;6.97;3.43;;;18.80;94.40;;;;;;5037796;28;20195;-73
2022/09/03 02:55:20;;;;;;;6.77;2.60;;;18.80;94.30;;;;;;5040761;28;20645;-74
2022/09/03 02:57:48;;;;;;;6.80;3.30;;;18.80;94.20;;;;;;5041785;28;20199;-74
2022/09/03 03:00:18;;;;;;;5.30;2.80;;;18.80;94.20;;;;;;5041060;28;20195;-74
2022/09/03 03:02:47;;;;;;;6.83;2.83;;;18.80;94.20;;;;;;5039606;28;20657;-74
2022/09/03 03:05:26;;;;;;;5.13;2.83;;;18.80;94.10;;;;;;5037221;28;20187;-75
2022/09/03 03:07:55;;;;;;;4.77;2.37;;;18.80;94.10;;;;;;5039795;28;20206;-74
2022/09/03 03:10:25;;;;;;;6.67;2.50;;;18.80;94.10;;;;;;5042128;28;20203;-75
2022/09/03 03:12:54;;;;;;;5.60;2.43;;;18.80;94.20;;;;;;5041592;28;20964;-73
2022/09/03 03:15:23;;;;;;;8.57;2.70;;;18.80;94.10;;;;;;5036759;28;20258;-75
2022/09/03 03:17:52;;;;;;;5.00;2.60;;;18.80;94.20;;;;;;5038488;28;20192;-74
2022/09/03 03:20:21;;;;;;;5.73;2.83;;;18.80;94.20;;;;;;5044644;28;20195;-74
2022/09/03 03:22:50;;;;;;;4.43;2.40;;;18.80;94.20;;;;;;5040775;28;20206;-75
2022/09/03 03:25:18;;;;;;;3.93;2.40;;;18.80;94.30;;;;;;5030410;28;20191;-74
2022/09/03 03:27:47;;;;;;;6.77;2.60;;;18.80;94.20;;;;;;5035128;28;20195;-73
2022/09/03 03:30:15;;;;;;;5.97;2.67;;;18.80;94.20;;;;;;5042913;28;20226;-74
2022/09/03 03:32:43;;;;;;;4.13;2.60;;;18.80;94.20;;;;;;5042418;28;20214;-74
2022/09/03 03:35:12;;;;;;;5.67;2.97;;;18.80;94.20;;;;;;5038926;28;20474;-74
2022/09/03 03:37:42;;;;;;;5.67;2.90;;;18.70;94.20;;;;;;5036881;28;20234;-74
2022/09/03 03:40:11;;;;;;;6.23;2.53;;;18.80;94.10;;;;;;5035290;28;20207;-75
2022/09/03 03:42:39;;;;;;;6.27;2.60;;;18.80;94.10;;;;;;5039328;28;20653;-74
2022/09/03 03:45:09;;;;;;;6.10;3.00;;;18.70;94.20;;;;;;5035916;28;20195;-74
2022/09/03 03:47:38;;;;;;;6.37;2.77;;;18.70;94.20;;;;;;5037848;28;20195;-74
2022/09/03 03:50:07;;;;;;;4.47;2.57;;;18.70;94.20;;;;;;5043410;28;20226;-74
2022/09/03 03:52:35;;;;;;;5.87;3.20;;;18.70;94.20;;;;;;5041965;28;20974;-74
2022/09/03 03:55:06;;;;;;;5.90;2.87;;;18.70;94.30;;;;;;5042166;28;20379;-74
2022/09/03 03:57:35;;;;;;;5.87;3.07;;;18.70;94.20;;;;;;5039289;28;20198;-75
2022/09/03 04:00:04;;;;;;;4.67;2.43;;;18.70;94.40;;;;;;5036665;28;20198;-74
2022/09/03 04:02:34;;;;;;;5.17;2.83;;;18.70;94.40;;;;;;5040274;28;20202;-74
2022/09/03 04:05:07;;;;;;;6.10;2.40;;;18.70;94.50;;;;;;5037535;28;20602;-75
2022/09/03 04:07:35;;;;;;;6.97;2.60;;;18.70;94.50;;;;;;5041006;28;20204;-74
2022/09/03 04:10:07;;;;;;;6.07;2.87;;;18.70;94.60;;;;;;5039680;28;20198;-74
2022/09/03 04:12:36;;;;;;;5.45;3.25;;;18.70;94.60;;;;;;5039587;28;20540;-74
2022/09/03 04:15:05;;;;;;;3.87;2.30;;;18.70;94.70;;;;;;5035331;28;20203;-74
2022/09/03 04:17:33;;;;;;;9.53;3.30;;;18.70;94.70;;;;;;5037818;28;20203;-75
2022/09/03 04:20:03;;;;;;;9.30;2.87;;;18.70;94.70;;;;;;5040688;28;20195;-74
2022/09/03 04:22:31;;;;;;;8.40;2.80;;;18.70;94.60;;;;;;5033845;28;20641;-74
2022/09/03 04:24:59;;;;;;;5.13;2.40;;;18.70;94.70;;;;;;5037290;28;20649;-74
2022/09/03 04:27:30;;;;;;;6.10;2.53;;;18.70;94.80;;;;;;5041205;28;20202;-74
2022/09/03 04:29:58;;;;;;;4.43;2.47;;;18.70;94.60;;;;;;5045739;28;20187;-74
2022/09/03 04:35:13;;;;;;;8.00;3.00;;;18.70;94.80;;;;;;5038511;28;20198;-74
2022/09/03 04:37:41;;;;;;;5.63;3.17;;;18.80;94.60;;;;;;5040323;28;20231;-73
2022/09/03 04:40:10;;;;;;;6.87;3.00;;;18.70;94.60;;;;;;5040048;28;20595;-76
2022/09/03 04:42:40;;;;;;;7.60;3.30;;;18.70;94.60;;;;;;5033539;28;20210;-75
2022/09/03 04:45:10;;;;;;;7.33;2.73;;;18.80;94.60;;;;;;5037396;28;20187;-75
2022/09/03 04:47:38;;;;;;;6.13;2.80;;;18.80;94.70;;;;;;5029299;28;20821;-75
2022/09/03 04:50:08;;;;;;;7.37;3.17;;;18.80;94.60;;;;;;5035034;28;20828;-75
2022/09/03 04:52:37;;;;;;;6.33;2.90;;;18.80;94.70;;;;;;5037894;28;20214;-74
2022/09/03 04:55:06;;;;;;;4.43;2.77;;;18.80;94.70;;;;;;5037585;28;20547;-75
2022/09/03 04:57:36;;;;;;;3.53;2.43;;;18.80;94.70;;;;;;5041378;28;20191;-75
2022/09/03 05:00:10;;;;;;;5.97;2.60;;;18.80;94.50;;;;;;5040713;28;20199;-76
2022/09/03 05:02:38;;;;;;;6.07;2.43;;;18.90;94.50;;;;;;5041509;28;20199;-76
2022/09/03 05:05:07;;;;;;;4.73;2.50;;;18.90;94.50;;;;;;5040235;28;20261;-75
2022/09/03 05:07:37;;;;;;;6.57;2.80;;;18.90;94.50;;;;;;5042724;28;20195;-77
2022/09/03 05:10:07;;;;;;;4.97;2.47;;;18.90;94.70;;;;;;5042126;28;20191;-76
2022/09/03 05:12:36;;;;;;;4.43;2.73;;;18.90;94.70;;;;;;5040084;28;20207;-76
2022/09/03 05:15:07;;;;;;;6.47;2.73;;;18.80;94.70;;;;;;5035968;28;20203;-76
2022/09/03 05:17:37;;;;;;;5.40;2.63;;;18.90;94.60;;;;;;5039790;28;20202;-75
2022/09/03 05:20:07;;;;;;;6.60;3.40;;;18.90;94.70;;;;;;5039168;28;20194;-75
2022/09/03 05:22:36;;;;;;;4.07;2.37;;;18.90;94.70;;;;;;5045491;28;20191;-74
2022/09/03 05:25:04;;;;;;;7.03;2.80;;;18.90;94.70;;;;;;5034143;28;20210;-75
2022/09/03 05:27:33;;;;;;;6.00;2.90;;;18.90;94.60;;;;;;5031021;28;20192;-75
2022/09/03 05:30:09;;;;;;;5.07;2.63;;;18.90;94.60;;;;;;5044404;28;20206;-76
2022/09/03 05:32:38;;;;;;;11.20;2.73;;;18.90;94.60;;;;;;5048636;28;20223;-75
2022/09/03 05:35:11;;;;;;;7.10;2.93;;;18.90;94.50;;;;;;5043845;28;20281;-76
2022/09/03 05:37:44;;;;;;;5.37;2.57;;;18.90;94.50;;;;;;5042312;28;20285;-76
2022/09/03 05:40:12;;;;;;;3.83;2.53;;;18.90;94.40;;;;;;5042303;28;20191;-75
2022/09/03 05:42:43;;;;;;;6.30;2.47;;;18.90;94.40;;;;;;5040918;28;20218;-75
2022/09/03 05:45:23;;;;;;;5.03;3.40;;;18.90;94.40;;;;;;5043119;28;20809;-76
2022/09/03 05:47:52;;;;;;;5.97;2.60;;;18.90;94.40;;;;;;5041587;28;20231;-77
2022/09/03 05:50:21;;;;;;;6.10;2.90;;;18.90;94.30;;;;;;5042001;28;20245;-75
2022/09/03 05:52:52;;;;;;;5.00;2.73;;;18.90;94.20;;;;;;5042885;28;20216;-74
2022/09/03 05:55:21;;;;;;;6.77;2.87;;;18.90;94.10;;;;;;5041941;28;20877;-75
2022/09/03 05:57:52;;;;;;;5.60;2.63;;;19.00;94.10;;;;;;5043829;28;20590;-76
2022/09/03 06:00:25;;;;;;;6.33;2.67;;;19.00;94.00;;;;;;5044484;28;20231;-76
2022/09/03 06:02:54;;;;;;;5.20;2.30;;;18.90;93.80;;;;;;5044165;28;20195;-76
2022/09/03 06:05:23;;;;;;;7.67;2.93;;;19.00;93.90;;;;;;5040724;28;20266;-76
2022/09/03 06:07:52;;;;;;;6.23;2.47;;;19.00;93.80;;;;;;5039787;28;20195;-77
2022/09/03 06:10:25;;;;;;;6.27;2.47;;;19.00;93.80;;;;;;5043430;28;20194;-75
2022/09/03 06:13:15;;;;;;;7.97;2.60;;;19.00;93.70;;;;;;5046103;28;20268;-76
2022/09/03 06:15:45;;;;;;;7.57;2.83;;;19.10;93.70;;;;;;5043741;28;20619;-75
2022/09/03 06:18:16;;;;;;;6.27;2.97;;;19.10;93.50;;;;;;5044670;28;20191;-76
2022/09/03 06:20:54;;;;;;;8.17;2.83;;;19.10;93.50;;;;;;5045221;28;20210;-77
2022/09/03 06:23:29;;;;;;;5.93;2.93;;;19.10;93.40;;;;;;5033415;28;20221;-76
2022/09/03 06:26:01;;;;;;;6.07;2.37;;;19.10;93.30;;;;;;5041713;28;20199;-74
2022/09/03 06:28:33;;;;;;;3.93;2.33;;;19.10;93.20;;;;;;5042754;28;20187;-77
2022/09/03 06:31:06;;;;;;;6.13;2.90;;;19.20;93.20;;;;;;5041425;28;20203;-77
2022/09/03 06:33:38;;;;;;;6.80;2.93;;;19.10;93.10;;;;;;5040597;28;20724;-76
2022/09/03 06:36:07;;;;;;;5.17;2.90;;;19.20;93.10;;;;;;5036772;28;20206;-76
2022/09/03 06:38:38;;;;;;;6.13;2.97;;;19.10;93.10;;;;;;5042505;28;20227;-77
2022/09/03 06:41:09;;;;;;;5.07;2.43;;;19.10;93.10;;;;;;5041391;28;20221;-76
2022/09/03 06:43:39;;;;;;;4.33;2.87;;;19.10;93.10;;;;;;5045035;28;20203;-76
2022/09/03 06:46:11;;;;;;;7.47;3.37;;;19.10;93.10;;;;;;5042668;28;20199;-75
2022/09/03 06:48:40;;;;;;;7.67;3.07;;;19.10;93.10;;;;;;5044062;28;20290;-75
2022/09/03 06:51:14;;;;;;;6.50;2.77;;;19.00;93.10;;;;;;5038240;28;20864;-75
2022/09/03 06:53:45;;;;;;;5.90;3.27;;;19.10;93.10;;;;;;5044640;28;20215;-75
2022/09/03 06:56:15;;;;;;;10.00;3.63;;;19.10;93.10;;;;;;5040382;28;20187;-76
2022/09/03 06:58:45;;;;;;;6.93;3.07;;;19.10;93.20;;;;;;5042546;28;20198;-75
2022/09/03 07:01:17;;;;;;;7.07;3.00;;;19.00;93.10;;;;;;5038687;28;20202;-77
2022/09/03 07:03:48;;;;;;;7.13;3.10;;;19.00;93.10;;;;;;5041116;28;20195;-75
2022/09/03 07:06:18;;;;;;;6.30;3.20;;;19.00;93.20;;;;;;5039508;28;20195;-75
2022/09/03 07:08:47;;;;;;;4.90;2.37;;;19.00;93.20;;;;;;5035480;28;20203;-76
2022/09/03 07:11:18;;;;;;;7.97;2.60;;;19.00;93.20;;;;;;5038393;28;20258;-76
2022/09/03 07:13:47;;;;;;;4.07;2.40;;;19.00;93.20;;;;;;5042587;28;20207;-75
2022/09/03 07:16:19;;;;;;;7.17;2.70;;;19.00;93.10;;;;;;5041563;28;20202;-75
2022/09/03 07:18:48;;;;;;;4.57;2.60;;;19.00;93.10;;;;;;5039298;28;20195;-76
2022/09/03 07:21:19;;;;;;;5.93;2.37;;;19.00;93.10;;;;;;5039702;28;20837;-75
2022/09/03 07:23:48;;;;;;;7.70;2.47;;;19.00;93.10;;;;;;5043180;28;20187;-75
2022/09/03 07:26:19;;;;;;;5.33;2.03;;;19.00;93.10;;;;;;5042516;28;20212;-75
2022/09/03 07:28:48;;;;;;;7.13;3.00;;;19.00;93.20;;;;;;5039671;28;20195;-76
2022/09/03 07:31:24;;;;;;;10.47;3.20;;;19.00;93.20;;;;;;5040625;28;20226;-75
2022/09/03 07:33:55;;;;;;;6.87;3.47;;;19.00;93.30;;;;;;5037178;28;20773;-75
2022/09/03 07:36:25;;;;;;;5.53;2.97;;;19.00;93.50;;;;;;5038223;28;20214;-74
2022/09/03 07:38:56;;;;;;;7.10;2.73;;;19.00;93.40;;;;;;5031954;28;20688;-75
2022/09/03 07:41:26;;;;;;;6.17;2.40;;;18.90;93.40;;;;;;5020726;28;20231;-76
2022/09/03 07:43:56;;;;;;;5.97;2.10;;;19.00;93.50;;;;;;5016655;28;20199;-74
2022/09/03 07:46:27;;;;;;;7.97;2.57;;;18.90;93.70;;;;;;5021528;28;20218;-75
2022/09/03 07:48:58;;;;;;;4.80;2.60;;;18.90;94.00;;;;;;5017066;28;20196;-75
2022/09/03 07:51:28;;;;;;;6.73;2.63;;;18.90;93.80;;;;;;5021520;28;20192;-74
2022/09/03 07:53:59;;;;;;;6.23;2.97;;;18.90;93.90;;;;;;5018909;28;20196;-75
2022/09/03 07:56:29;;;;;;;4.27;2.40;;;18.90;94.00;;;;;;5015378;28;20188;-75
2022/09/03 07:58:58;;;;;;;5.93;2.40;;;18.90;93.90;;;;;;5017559;28;20200;-74
2022/09/03 08:01:30;;;;;;;5.77;2.47;;;18.90;94.00;;;;;;5035388;28;20743;-75
2022/09/03 08:03:59;;;;;;;7.27;2.50;;;19.00;94.00;;;;;;5022358;28;20198;-74
2022/09/03 08:06:29;;;;;;;5.47;2.63;;;19.00;94.10;;;;;;5020147;28;20292;-74
2022/09/03 08:09:00;;;;;;;6.10;2.30;;;19.00;94.00;;;;;;5017053;28;20192;-74
2022/09/03 08:11:34;;;;;;;3.60;2.53;;;19.00;93.90;;;;;;5024962;28;20190;-75
2022/09/03 08:14:05;;;;;;;5.13;2.47;;;19.00;93.90;;;;;;5028373;28;20310;-75
2022/09/03 08:16:37;;;;;;;5.63;2.30;;;19.00;93.90;;;;;;5036893;28;20206;-74
2022/09/03 08:19:06;;;;;;;5.00;2.43;;;19.00;93.90;;;;;;5019384;28;20191;-75
2022/09/03 08:21:35;;;;;;;4.03;2.30;;;19.00;93.90;;;;;;5024154;28;20227;-74
2022/09/03 08:24:04;;;;;;;10.60;3.10;;;19.10;93.90;;;;;;5020142;28;20573;-74
2022/09/03 08:26:34;;;;;;;4.63;2.47;;;19.10;94.10;;;;;;5030285;28;20207;-74
2022/09/03 08:29:03;;;;;;;5.37;2.77;;;19.10;94.00;;;;;;5012411;28;20253;-74
2022/09/03 08:31:32;;;;;;;6.93;2.50;;;19.10;94.10;;;;;;5018662;28;20573;-73
2022/09/03 08:34:05;;;;;;;3.67;2.23;;;19.10;94.30;;;;;;5021834;28;20211;-74
2022/09/03 08:36:35;;;;;;;3.47;2.17;;;19.10;94.40;;;;;;5037998;28;20936;-74
2022/09/03 08:39:08;;;;;;;4.07;2.13;;;19.10;94.50;;;;;;5029542;28;20219;-74
2022/09/03 08:42:13;;;;;;;4.00;2.43;;;19.10;94.50;;;;;;5031526;28;20202;-74
2022/09/03 08:44:46;;;;;;;4.60;1.67;;;19.10;94.50;;;;;;5030245;28;20195;-73
2022/09/03 08:47:19;;;;;;;4.67;2.10;;;19.10;94.70;;;;;;5023031;28;20205;-73
2022/09/03 08:49:54;;;;;;;5.47;2.17;;;19.20;94.60;;;;;;5026809;28;20227;-74
2022/09/03 08:52:28;;;;;;;3.33;1.53;;;19.20;94.70;;;;;;5022137;28;20191;-74
2022/09/03 08:55:04;;;;;;;5.07;2.07;;;19.20;94.70;;;;;;5025930;28;20199;-74
2022/09/03 08:57:41;;;;;;;3.53;1.50;;;19.20;94.80;;;;;;5018464;28;20191;-73
2022/09/03 09:00:11;;;;;;;5.53;1.97;;;19.20;94.70;;;;;;5019578;28;20196;-74
2022/09/03 09:02:59;;;;;;;4.53;1.70;;;19.20;94.70;;;;;;5025183;28;20557;-74
2022/09/03 09:05:42;;;;;;;3.60;2.10;;;19.30;94.70;;;;;;5014581;28;20541;-75
2022/09/03 09:08:20;;;;;;;4.33;2.00;;;19.30;94.80;;;;;;5016945;28;20275;-75
2022/09/03 09:10:58;;;;;;;2.90;1.93;;;19.30;94.70;;;;;;5023721;28;20737;-73
2022/09/03 09:13:33;;;;;;;4.40;1.93;;;19.30;94.70;;;;;;5019694;28;20200;-73
2022/09/03 09:16:09;;;;;;;3.87;2.13;;;19.30;94.90;;;;;;5026837;28;20789;-75
2022/09/03 09:18:52;;;;;;;2.97;2.00;;;19.30;95.00;;;;;;5031383;28;20198;-74
2022/09/03 09:21:27;;;;;;;3.10;1.60;;;19.30;94.90;;;;;;5019586;28;20202;-75
2022/09/03 09:24:01;;;;;;;5.67;1.73;;;19.30;95.00;;;;;;5024856;28;20200;-74
2022/09/03 09:26:30;;;;;;;4.33;1.73;;;19.40;95.00;;;;;;5024566;28;20211;-73
2022/09/03 09:29:02;;;;;;;2.90;1.53;;;19.40;95.00;;;;;;5016608;28;20202;-74
2022/09/03 09:31:32;;;;;;;3.90;1.63;;;19.40;95.00;;;;;;5025673;28;20200;-75
2022/09/03 09:34:07;;;;;;;2.00;1.20;;;19.40;94.80;;;;;;5018072;28;20219;-74
2022/09/03 09:36:48;;;;;;;2.50;1.57;;;19.40;94.90;;;;;;5016284;28;20303;-73
2022/09/03 09:39:16;;;;;;;3.07;1.50;;;19.40;94.80;;;;;;5030650;28;20225;-73
2022/09/03 09:41:58;;;;;;;1.90;1.20;;;19.50;94.80;;;;;;5038247;28;20206;-74
2022/09/03 09:44:26;;;;;;;2.47;1.33;;;19.50;94.80;;;;;;5041626;28;20198;-74
2022/09/03 09:47:05;;;;;;;3.43;1.30;;;19.50;94.80;;;;;;5040381;28;20191;-74
2022/09/03 09:49:37;;;;;;;2.37;1.53;;;19.50;94.70;;;;;;5030577;28;20222;-74
2022/09/03 09:52:12;;;;;;;3.70;1.50;;;19.50;94.70;;;;;;5042453;28;20195;-73
2022/09/03 09:54:42;;;;;;;1.80;1.30;;;19.50;94.50;;;;;;5038832;28;20203;-72
2022/09/03 09:57:16;;;;;;;4.77;1.30;;;19.50;94.50;;;;;;5037570;28;20195;-75
2022/09/03 09:59:45;;;;;;;3.00;1.50;;;19.60;94.40;;;;;;5043137;28;20206;-76
2022/09/03 10:02:27;;;;;;;2.17;1.57;;;19.60;94.50;;;;;;5041348;28;20198;-75
2022/09/03 10:05:01;;;;;;;4.03;1.30;;;19.50;94.50;;;;;;5040812;28;20198;-74
2022/09/03 10:07:31;;;;;;;2.17;1.30;;;19.60;94.30;;;;;;5037075;28;20187;-74
2022/09/03 10:10:02;;;;;;;2.90;1.50;;;19.60;94.30;;;;;;5033615;28;20191;-75
2022/09/03 10:12:35;;;;;;;2.83;1.40;;;19.60;94.30;;;;;;5041281;28;20226;-75
2022/09/03 10:15:13;;;;;;;2.17;1.33;;;19.60;94.20;;;;;;5041921;28;20219;-72
2022/09/03 10:17:52;;;;;;;5.05;1.58;;;19.60;94.20;;;;;;5038793;28;20199;-73
2022/09/03 10:20:30;;;;;;;3.30;1.47;;;19.60;94.30;;;;;;5043352;28;20191;-73
2022/09/03 10:23:10;;;;;;;1.97;1.30;;;19.60;94.20;;;;;;5041871;28;20202;-75
2022/09/03 10:25:46;;;;;;;2.47;1.60;;;19.60;94.20;;;;;;5040144;28;20195;-73
2022/09/03 10:28:15;;;;;;;3.80;1.60;;;19.60;94.10;;;;;;5036629;28;20191;-75
2022/09/03 10:30:57;;;;;;;3.10;1.70;;;19.60;94.00;;;;;;5040908;28;20872;-74
2022/09/03 10:33:31;;;;;;;5.13;1.30;;;19.60;93.90;;;;;;5040160;28;20199;-76
2022/09/03 10:36:09;;;;;;;2.80;1.60;;;19.70;93.90;;;;;;5044468;28;20199;-76
2022/09/03 10:38:40;;;;;;;2.40;1.30;;;19.70;93.90;;;;;;5031312;28;20222;-73
2022/09/03 10:41:19;;;;;;;2.70;1.50;;;19.70;93.90;;;;;;5033400;28;20188;-73
2022/09/03 10:44:14;;;;;;;2.00;1.43;;;19.60;93.80;;;;;;5038493;28;20277;-73
2022/09/03 10:46:54;;;;;;;3.63;1.73;;;19.70;93.80;;;;;;5028666;28;20199;-75
2022/09/03 10:49:32;;;;;;;3.10;1.87;;;19.70;93.80;;;;;;5030491;28;20202;-76
2022/09/03 10:52:09;;;;;;;6.20;1.80;;;19.60;93.70;;;;;;5031831;28;20203;-76
2022/09/03 10:54:49;;;;;;;4.60;1.80;;;19.70;93.70;;;;;;5032782;28;20206;-76
2022/09/03 10:57:31;;;;;;;2.45;1.50;;;19.60;93.30;;;;;;5029980;28;20192;-76
2022/09/03 11:00:11;;;;;;;5.90;1.90;;;19.60;93.30;;;;;;5037463;28;20187;-78
2022/09/03 11:03:11;;;;;;;5.10;1.77;;;19.60;93.20;;;;;;5039663;28;20202;-75
2022/09/03 11:05:44;;;;;;;3.50;1.73;;;19.60;93.20;;;;;;5041096;28;20205;-76
2022/09/03 11:08:18;;;;;;;6.57;2.23;;;19.60;93.20;;;;;;5039828;28;20191;-74
2022/09/03 11:10:52;;;;;;;4.70;1.90;;;19.70;93.30;;;;;;5039770;28;20669;-75
2022/09/03 11:13:25;;;;;;;3.37;1.77;;;19.70;93.20;;;;;;5038972;28;20187;-74
2022/09/03 11:15:58;;;;;;;4.40;1.73;;;19.60;93.10;;;;;;5040285;28;20213;-74
2022/09/03 11:18:32;;;;;;;4.17;2.20;;;19.70;93.10;;;;;;5031804;28;20726;-75
2022/09/03 11:21:05;;;;;;;3.83;1.80;;;19.70;93.00;;;;;;5033865;28;20203;-75
2022/09/03 11:23:43;;;;;;;4.20;2.17;;;19.70;93.00;;;;;;5035569;28;20198;-74
2022/09/03 11:26:15;;;;;;;5.35;2.35;;;19.70;93.00;;;;;;5040837;28;20179;-75
2022/09/03 11:28:52;;;;;;;3.08;1.90;;;19.80;93.10;;;;;;5038359;28;20282;-75
2022/09/03 11:31:30;;;;;;;5.43;1.83;;;19.80;93.00;;;;;;5036936;28;20194;-75
2022/09/03 11:34:01;;;;;;;4.47;2.07;;;19.80;92.90;;;;;;5035341;28;20190;-75
2022/09/03 11:36:31;;;;;;;2.55;1.95;;;19.90;92.90;;;;;;5033864;28;20192;-74
2022/09/03 11:39:00;;;;;;;2.92;1.92;;;19.90;92.90;;;;;;5037025;28;20717;-75
2022/09/03 11:41:34;;;;;;;4.22;1.80;;;19.90;92.90;;;;;;5039700;28;20199;-75
2022/09/03 11:44:17;;;;;;;4.85;2.08;;;19.90;92.80;;;;;;5030543;28;20199;-75
2022/09/03 11:46:57;;;;;;;3.95;1.73;;;20.00;92.80;;;;;;5039761;28;20210;-75
2022/09/03 11:49:30;;;;;;;3.63;2.13;;;20.00;92.80;;;;;;5036891;28;20202;-75
2022/09/03 11:52:01;;;;;;;5.65;2.63;;;20.00;92.60;;;;;;5027254;28;20204;-79
2022/09/03 11:54:42;;;;;;;6.60;2.30;;;20.00;92.60;;;;;;5037831;28;20283;-74
2022/09/03 11:57:14;;;;;;;5.03;2.58;;;20.00;92.50;;;;;;5035905;28;20203;-75
2022/09/03 11:59:44;;;;;;;4.60;2.42;;;20.00;92.50;;;;;;5039979;28;20187;-75
2022/09/03 12:02:26;;;;;;;3.75;2.30;;;20.00;92.60;;;;;;5042725;28;20186;-75
2022/09/03 12:05:14;;;;;;;3.53;2.33;;;20.10;92.60;;;;;;5041094;28;20292;-75
2022/09/03 12:07:59;;;;;;;4.72;2.40;;;20.10;92.70;;;;;;5036760;28;20226;-75
2022/09/03 12:10:42;;;;;;;3.97;1.83;;;20.10;92.60;;;;;;5035519;28;20191;-75
2022/09/03 12:13:42;;;;;;;3.85;2.10;;;20.10;92.50;;;;;;5036790;28;20199;-75
2022/09/03 12:16:35;;;;;;;2.90;1.85;;;20.10;92.40;;;;;;5027414;28;20245;-76
2022/09/03 12:19:07;;;;;;;6.07;2.38;;;20.20;92.40;;;;;;5036509;28;20195;-76
2022/09/03 12:21:40;;;;;;;4.20;2.28;;;20.20;92.30;;;;;;5036763;28;20797;-76
2022/09/03 12:24:13;;;;;;;3.70;2.08;;;20.20;92.30;;;;;;5030772;28;20208;-76
2022/09/03 12:26:43;;;;;;;5.90;2.00;;;20.30;92.30;;;;;;5030501;28;20195;-75
2022/09/03 12:29:24;;;;;;;5.68;2.20;;;20.30;92.30;;;;;;5028175;28;20191;-75
2022/09/03 12:31:56;;;;;;;8.57;2.15;;;20.30;92.20;;;;;;5037382;28;20199;-77
2022/09/03 12:34:26;;;;;;;5.82;2.60;;;20.30;92.20;;;;;;5041346;28;20206;-75
2022/09/03 12:36:55;;;;;;;4.63;2.30;;;20.30;92.20;;;;;;5044494;28;20206;-75
2022/09/03 12:39:25;;;;;;;4.15;2.35;;;20.30;92.10;;;;;;5038509;28;20226;-75
2022/09/03 12:42:20;;;;;;;2.92;1.80;;;20.30;92.00;;;;;;5036234;28;20257;-75
2022/09/03 12:44:49;;;;;;;5.32;1.70;;;20.40;91.90;;;;;;5038921;28;20199;-76
2022/09/03 12:47:20;;;;;;;3.03;1.73;;;20.40;91.40;;;;;;5040553;28;20628;-76
2022/09/03 12:50:08;;;;;;;3.85;1.67;;;20.40;91.50;;;;;;5032278;28;20216;-75
2022/09/03 12:52:42;;;;;;;2.95;1.77;;;20.40;91.30;;;;;;5036870;28;20202;-75
2022/09/03 12:55:21;;;;;;;3.22;1.60;;;20.40;91.20;;;;;;5041613;28;20214;-75
2022/09/03 12:58:00;;;;;;;3.55;1.70;;;20.40;91.20;;;;;;5037166;28;20195;-76
2022/09/03 13:00:33;;;;;;;5.78;2.35;;;20.40;91.00;;;;;;5037497;28;20183;-75
2022/09/03 13:03:05;;;;;;;3.25;1.70;;;20.40;90.90;;;;;;5038453;28;20610;-76
2022/09/03 13:05:41;;;;;;;2.42;1.60;;;20.40;90.90;;;;;;5042491;28;20194;-76
2022/09/03 13:08:15;;;;;;;2.83;1.63;;;20.50;90.90;;;;;;5039181;28;20198;-74
2022/09/03 13:10:44;;;;;;;2.63;1.55;;;20.40;90.60;;;;;;5036682;28;20206;-75
2022/09/03 13:13:22;;;;;;;3.70;1.80;;;20.40;90.70;;;;;;5037110;28;20366;-75
2022/09/03 13:16:10;;;;;;;4.10;1.98;;;20.40;90.60;;;;;;5033540;28;20207;-75
2022/09/03 13:18:46;;;;;;;3.53;2.00;;;20.40;90.50;;;;;;5040400;28;20203;-74
2022/09/03 13:21:20;;;;;;;4.78;1.42;;;20.40;90.40;;;;;;5036326;28;20186;-75
2022/09/03 13:23:59;;;;;;;3.03;1.45;;;20.50;90.40;;;;;;5040438;28;20191;-74